Time;durP1;ratioP1;P1;durP2;ratioP2;P2;SDS_P1;SDS_P2;PMS_P1;PMS_P2;Temp;Humidity;BMP_temperature;BMP_pressure;BME280_temperature;BME280_humidity;BME280_pressure;Samples;Min_cycle;Max_cycle;Signal;HPM_P1;HPM_P2
2023/09/10 00:00:22;;;;;;;65.07;15.23;;;16.90;1.00;;;;;;4976853;28;20234;-80
2023/09/10 00:02:52;;;;;;;63.57;15.57;;;16.90;1.00;;;;;;4976424;28;20394;-79
2023/09/10 00:05:22;;;;;;;66.00;16.50;;;16.90;1.00;;;;;;4977745;28;20406;-80
2023/09/10 00:08:05;;;;;;;64.80;16.10;;;16.90;1.00;;;;;;4976124;28;20446;-79
2023/09/10 00:10:47;;;;;;;63.67;15.57;;;16.90;1.00;;;;;;4976454;28;20445;-79
2023/09/10 00:13:34;;;;;;;65.47;17.20;;;16.90;1.00;;;;;;4977383;28;20428;-79
2023/09/10 00:20:10;;;;;;;64.73;17.23;;;16.80;1.00;;;;;;4976616;28;20795;-80
2023/09/10 00:22:37;;;;;;;69.33;16.83;;;16.80;1.00;;;;;;4977231;28;20425;-79
2023/09/10 00:25:52;;;;;;;69.40;17.83;;;16.80;1.00;;;;;;4976827;28;20461;-80
2023/09/10 00:28:22;;;;;;;64.47;16.80;;;16.70;1.00;;;;;;4969665;28;20477;-79
2023/09/10 00:31:04;;;;;;;65.90;17.20;;;16.70;1.00;;;;;;4968756;28;20935;-81
2023/09/10 00:33:40;;;;;;;72.87;17.23;;;16.70;1.00;;;;;;4978785;28;20862;-79
2023/09/10 00:36:46;;;;;;;66.80;17.10;;;16.70;1.00;;;;;;4979230;28;20422;-80
2023/09/10 00:39:16;;;;;;;65.17;16.80;;;16.60;1.00;;;;;;4976500;28;20405;-79
2023/09/10 00:42:22;;;;;;;73.93;17.77;;;16.60;1.00;;;;;;4981031;28;21069;-79
2023/09/10 00:45:16;;;;;;;64.30;16.33;;;16.60;1.00;;;;;;4964400;28;20439;-79
2023/09/10 00:47:47;;;;;;;65.10;16.63;;;16.60;1.00;;;;;;4974249;28;20430;-79
2023/09/10 00:50:17;;;;;;;69.97;16.80;;;16.50;1.00;;;;;;4976889;28;20482;-80
2023/09/10 00:52:50;;;;;;;63.27;16.60;;;16.50;1.00;;;;;;4976293;28;20445;-79
2023/09/10 00:55:29;;;;;;;76.90;16.07;;;16.50;1.00;;;;;;4976637;28;20405;-79
2023/09/10 00:58:46;;;;;;;62.23;16.30;;;16.50;1.00;;;;;;4985188;28;20446;-79
2023/09/10 01:01:17;;;;;;;63.97;16.33;;;16.50;1.00;;;;;;4972652;28;20443;-79
2023/09/10 01:04:10;;;;;;;69.50;16.13;;;16.50;1.00;;;;;;4976277;28;20433;-79
2023/09/10 01:06:36;;;;;;;72.83;17.20;;;16.40;1.00;;;;;;4976738;28;20386;-79
2023/09/10 01:09:22;;;;;;;67.80;17.03;;;16.40;1.00;;;;;;4990454;28;20846;-79
2023/09/10 01:12:07;;;;;;;67.37;15.97;;;16.40;1.00;;;;;;4976039;28;20450;-79
2023/09/10 01:15:05;;;;;;;67.33;17.40;;;16.30;1.00;;;;;;4975383;28;20509;-79
2023/09/10 01:18:07;;;;;;;71.30;18.37;;;16.30;1.00;;;;;;4968247;28;20759;-80
2023/09/10 01:20:55;;;;;;;67.63;18.87;;;16.30;1.00;;;;;;4967313;28;20444;-79
2023/09/10 01:23:59;;;;;;;68.40;18.17;;;16.30;1.00;;;;;;4975946;28;20411;-79
2023/09/10 01:26:28;;;;;;;71.47;19.30;;;16.30;1.00;;;;;;4956652;28;20963;-80
2023/09/10 01:29:14;;;;;;;67.20;16.80;;;16.20;1.00;;;;;;4965459;28;20859;-80
2023/09/10 01:31:44;;;;;;;70.30;18.20;;;16.20;1.00;;;;;;4974973;28;20444;-80
2023/09/10 01:34:15;;;;;;;66.50;18.13;;;16.20;1.00;;;;;;4974757;28;20438;-79
2023/09/10 01:36:48;;;;;;;63.67;17.10;;;16.20;1.00;;;;;;4975937;28;20499;-79
2023/09/10 01:39:37;;;;;;;65.20;17.77;;;16.20;1.00;;;;;;4975186;28;20418;-79
2023/09/10 01:42:23;;;;;;;70.07;18.10;;;16.20;1.00;;;;;;4975858;28;20446;-79
2023/09/10 01:44:53;;;;;;;66.57;18.30;;;16.20;1.00;;;;;;4972998;28;20937;-80
2023/09/10 01:47:52;;;;;;;77.70;19.37;;;16.20;1.00;;;;;;4975128;28;20535;-79
2023/09/10 01:50:46;;;;;;;68.80;18.13;;;16.10;1.00;;;;;;4972772;28;20427;-79
2023/09/10 01:53:40;;;;;;;76.37;18.30;;;16.20;1.00;;;;;;4975430;28;20862;-81
2023/09/10 01:56:10;;;;;;;69.33;17.00;;;16.10;1.00;;;;;;4964694;28;20408;-81
2023/09/10 01:59:22;;;;;;;66.07;18.07;;;16.10;1.00;;;;;;4974507;28;20800;-81
2023/09/10 02:01:47;;;;;;;66.20;16.77;;;16.10;1.00;;;;;;4974771;28;20466;-80
2023/09/10 02:04:22;;;;;;;69.63;17.27;;;16.10;1.00;;;;;;4974845;28;20403;-81
2023/09/10 02:06:52;;;;;;;76.37;18.67;;;16.00;1.00;;;;;;4986040;28;20654;-79
2023/09/10 02:09:28;;;;;;;85.80;18.20;;;16.00;1.00;;;;;;4970920;28;20951;-79
2023/09/10 02:12:04;;;;;;;65.87;16.30;;;16.00;1.00;;;;;;4973121;28;20919;-79
2023/09/10 02:14:48;;;;;;;69.97;17.40;;;16.00;1.00;;;;;;4975194;28;20403;-79
2023/09/10 02:17:14;;;;;;;64.57;16.60;;;15.90;1.00;;;;;;4968600;28;20484;-79
2023/09/10 02:19:52;;;;;;;63.87;17.77;;;16.00;1.00;;;;;;4974574;28;20947;-80
2023/09/10 02:22:22;;;;;;;68.17;18.40;;;15.90;1.00;;;;;;4972234;28;20920;-80
2023/09/10 02:25:05;;;;;;;63.80;16.80;;;16.00;1.00;;;;;;4974418;28;20475;-79
2023/09/10 02:27:46;;;;;;;74.60;18.10;;;15.90;1.60;;;;;;4973773;28;20436;-79
2023/09/10 02:30:40;;;;;;;67.20;16.40;;;15.90;1.40;;;;;;4974653;28;20420;-79
2023/09/10 02:33:16;;;;;;;64.80;16.80;;;15.90;1.00;;;;;;4974369;28;20912;-79
2023/09/10 02:35:46;;;;;;;64.63;17.40;;;15.90;1.00;;;;;;4974399;28;20427;-79
2023/09/10 02:38:12;;;;;;;65.90;16.83;;;15.90;1.00;;;;;;4973882;28;20571;-81
2023/09/10 02:40:58;;;;;;;64.00;17.30;;;15.90;1.00;;;;;;4974500;28;20507;-81
2023/09/10 02:43:46;;;;;;;60.47;16.30;;;15.90;1.00;;;;;;4981134;28;20753;-81
2023/09/10 02:46:25;;;;;;;65.80;16.97;;;15.80;1.00;;;;;;4973855;28;20422;-81
2023/09/10 02:48:58;;;;;;;63.33;16.33;;;15.80;1.20;;;;;;4974791;28;20445;-81
2023/09/10 02:51:24;;;;;;;69.53;16.80;;;15.80;1.50;;;;;;4974445;28;20977;-80
2023/09/10 02:53:52;;;;;;;66.03;16.70;;;15.80;1.30;;;;;;4974599;28;20427;-80
2023/09/10 02:56:34;;;;;;;68.77;17.67;;;15.80;1.80;;;;;;4972564;28;20670;-79
2023/09/10 02:59:31;;;;;;;63.47;16.90;;;15.80;1.20;;;;;;4973084;28;20897;-80
2023/09/10 03:02:04;;;;;;;63.57;16.17;;;15.80;1.50;;;;;;4952678;29;20842;-79
2023/09/10 03:04:58;;;;;;;66.37;16.67;;;15.70;1.00;;;;;;4944138;28;20995;-79
2023/09/10 03:07:34;;;;;;;62.40;16.30;;;15.70;1.00;;;;;;4953453;29;20444;-79
2023/09/10 03:10:10;;;;;;;67.70;16.50;;;15.70;2.20;;;;;;4952854;29;20927;-80
2023/09/10 03:12:52;;;;;;;77.30;18.83;;;15.70;2.30;;;;;;4936619;29;20472;-79
2023/09/10 03:15:52;;;;;;;68.73;16.90;;;15.70;3.10;;;;;;4953137;28;20944;-79
2023/09/10 03:19:10;;;;;;;64.17;16.83;;;15.70;1.70;;;;;;4956505;29;20431;-79
2023/09/10 03:21:47;;;;;;;63.97;16.40;;;15.70;4.40;;;;;;4957088;29;20410;-81
2023/09/10 03:24:13;;;;;;;74.60;17.50;;;15.70;5.10;;;;;;4957001;29;20441;-81
2023/09/10 03:26:40;;;;;;;64.50;17.13;;;15.70;3.40;;;;;;4955777;29;20458;-80
2023/09/10 03:29:10;;;;;;;65.40;16.50;;;15.70;6.10;;;;;;4953593;29;20195;-81
2023/09/10 03:31:53;;;;;;;63.13;17.20;;;15.60;6.20;;;;;;4955281;28;20545;-81
2023/09/10 03:34:34;;;;;;;70.73;17.33;;;15.60;6.70;;;;;;4955238;29;20437;-80
2023/09/10 03:37:06;;;;;;;63.37;17.33;;;15.60;7.30;;;;;;4957220;29;20415;-80
2023/09/10 03:39:52;;;;;;;65.90;17.80;;;15.60;8.10;;;;;;4976748;28;20513;-79
2023/09/10 03:42:18;;;;;;;67.17;17.63;;;15.60;7.80;;;;;;4978229;28;20393;-79
2023/09/10 03:44:46;;;;;;;68.80;17.20;;;15.60;8.00;;;;;;4977553;28;20492;-79
2023/09/10 03:47:22;;;;;;;64.80;17.33;;;15.60;8.50;;;;;;4960031;28;20169;-80
2023/09/10 03:49:48;;;;;;;65.10;16.90;;;;;;;;;;4977029;28;20429;-90
2023/09/10 03:52:34;;;;;;;71.50;17.77;;;15.60;7.00;;;;;;4999540;28;20805;-83
2023/09/10 03:58:40;;;;;;;64.70;15.80;;;15.60;8.90;;;;;;4978231;28;20411;-84
2023/09/10 04:01:47;;;;;;;61.73;15.73;;;15.60;8.30;;;;;;4976892;28;20920;-83
2023/09/10 04:04:34;;;;;;;59.73;16.43;;;15.60;8.20;;;;;;4987875;28;20940;-83
2023/09/10 04:07:04;;;;;;;61.57;15.87;;;15.60;9.20;;;;;;4978247;28;20404;-84
2023/09/10 04:09:30;;;;;;;62.80;16.63;;;15.60;10.10;;;;;;4975258;28;20461;-84
2023/09/10 04:12:22;;;;;;;64.10;16.93;;;15.60;10.50;;;;;;4976569;28;20481;-83
2023/09/10 04:15:22;;;;;;;64.43;16.73;;;15.60;10.60;;;;;;4974665;28;20405;-83
2023/09/10 04:21:34;;;;;;;70.60;17.13;;;15.50;7.60;;;;;;4972076;28;20799;-83
2023/09/10 04:24:16;;;;;;;73.83;17.50;;;15.50;10.40;;;;;;4975939;28;20421;-83
2023/09/10 04:30:22;;;;;;;62.40;16.97;;;15.50;12.00;;;;;;4961794;28;20428;-83
2023/09/10 04:32:48;;;;;;;63.17;16.97;;;15.50;10.90;;;;;;4977090;28;20524;-83
2023/09/10 04:35:16;;;;;;;65.63;16.53;;;15.50;16.80;;;;;;4972658;28;20992;-83
2023/09/10 04:38:04;;;;;;;66.43;15.67;;;15.50;12.90;;;;;;4960116;28;20678;-84
2023/09/10 04:41:16;;;;;;;67.13;16.73;;;15.50;13.40;;;;;;4975271;28;20434;-84
2023/09/10 04:47:34;;;;;;;69.03;17.13;;;15.40;12.30;;;;;;4975824;28;20431;-84
2023/09/10 04:53:52;;;;;;;64.03;15.40;;;15.40;9.40;;;;;;4974566;28;20484;-84
2023/09/10 04:56:18;;;;;;;62.70;15.43;;;15.40;10.30;;;;;;4975234;28;20921;-83
2023/09/10 04:58:52;;;;;;;72.47;17.13;;;15.50;10.60;;;;;;4976681;28;20389;-84
2023/09/10 05:01:28;;;;;;;61.37;15.27;;;15.40;13.00;;;;;;4974661;28;20666;-84
2023/09/10 05:03:58;;;;;;;60.90;16.37;;;15.40;8.50;;;;;;4956529;29;20382;-84
2023/09/10 05:09:54;;;;;;;60.00;15.53;;;15.40;11.90;;;;;;4976624;28;20494;-83
2023/09/10 05:13:16;;;;;;;61.07;16.10;;;15.40;12.70;;;;;;4964270;28;20437;-83
2023/09/10 05:15:58;;;;;;;62.17;15.27;;;15.40;13.10;;;;;;4976111;28;20401;-83
2023/09/10 05:18:24;;;;;;;71.17;17.20;;;15.50;11.00;;;;;;4976059;28;20439;-83
2023/09/10 05:21:22;;;;;;;60.40;15.50;;;15.50;7.80;;;;;;4976255;28;20427;-83
2023/09/10 05:23:58;;;;;;;61.03;15.37;;;15.50;7.90;;;;;;4996035;28;20434;-83
2023/09/10 05:29:46;;;;;;;61.33;14.40;;;15.50;11.00;;;;;;4956951;29;20377;-83
2023/09/10 05:32:11;;;;;;;60.07;14.10;;;15.60;12.10;;;;;;4959542;28;20469;-83
2023/09/10 05:35:16;;;;;;;64.77;14.90;;;15.60;12.40;;;;;;4974485;28;20588;-83
2023/09/10 05:37:44;;;;;;;62.87;15.90;;;15.60;12.60;;;;;;4974960;28;20179;-83
2023/09/10 05:40:17;;;;;;;67.30;15.67;;;15.60;10.10;;;;;;4973839;28;20394;-83
2023/09/10 05:42:58;;;;;;;61.67;15.33;;;15.70;12.70;;;;;;4975643;28;20397;-83
2023/09/10 05:45:28;;;;;;;63.17;16.03;;;15.70;9.90;;;;;;4975514;28;20864;-84
2023/09/10 05:47:54;;;;;;;65.27;16.00;;;15.70;12.20;;;;;;4974100;28;20750;-82
2023/09/10 05:50:29;;;;;;;65.90;15.20;;;15.80;11.20;;;;;;4975005;28;20505;-83
2023/09/10 05:52:59;;;;;;;60.87;15.03;;;15.80;10.30;;;;;;4975927;28;20206;-83
2023/09/10 05:55:26;;;;;;;69.87;15.33;;;15.80;10.80;;;;;;4990750;28;20916;-83
2023/09/10 05:58:23;;;;;;;61.13;14.17;;;15.90;8.10;;;;;;4975855;28;20417;-84
2023/09/10 06:01:40;;;;;;;60.57;15.20;;;15.90;10.50;;;;;;4979903;28;20412;-83
2023/09/10 06:04:16;;;;;;;60.93;15.00;;;16.00;9.70;;;;;;4976169;28;20410;-84
2023/09/10 06:06:42;;;;;;;67.50;15.90;;;16.00;10.30;;;;;;4990844;28;20981;-84
2023/09/10 06:09:16;;;;;;;61.87;15.80;;;16.10;11.20;;;;;;4990649;28;20405;-84
2023/09/10 06:11:46;;;;;;;63.10;15.90;;;16.20;12.20;;;;;;4975201;28;20203;-84
2023/09/10 06:14:58;;;;;;;61.07;15.43;;;16.30;12.60;;;;;;4974248;28;20495;-84
2023/09/10 06:17:28;;;;;;;61.73;15.00;;;16.30;13.10;;;;;;4990220;28;20490;-84
2023/09/10 06:23:34;;;;;;;63.50;14.57;;;16.60;12.90;;;;;;4974794;28;20457;-88
2023/09/10 06:29:40;;;;;;;71.33;15.10;;;16.80;13.40;;;;;;4974783;28;20398;-84
2023/09/10 06:32:06;;;;;;;68.10;15.87;;;16.90;13.90;;;;;;4978884;28;20446;-81
2023/09/10 06:35:04;;;;;;;63.80;15.03;;;17.00;14.40;;;;;;4988905;28;20489;-83
2023/09/10 06:38:10;;;;;;;65.60;15.90;;;17.10;15.00;;;;;;4974917;28;20173;-83
2023/09/10 06:43:58;;;;;;;62.43;14.40;;;17.40;15.50;;;;;;4974002;28;20401;-83
2023/09/10 06:46:46;;;;;;;68.40;14.83;;;17.50;16.00;;;;;;4973388;28;20923;-83
2023/09/10 06:52:52;;;;;;;67.47;15.07;;;17.80;14.10;;;;;;4974440;28;20439;-83
2023/09/10 06:56:10;;;;;;;66.17;14.60;;;17.90;13.00;;;;;;4973199;28;20429;-83
2023/09/10 07:04:34;;;;;;;66.13;12.40;;;18.50;8.60;;;;;;5056765;23;21234;-83
2023/09/10 07:10:22;;;;;;;62.03;13.27;;;18.70;11.10;;;;;;4954243;29;20477;-83
2023/09/10 07:44:48;;;;;;;57.60;13.00;;;20.30;1.00;;;;;;4951349;28;20412;-84
2023/09/10 07:57:20;;;;;;;54.20;12.10;;;20.90;1.00;;;;;;4951835;29;20432;-84
2023/09/10 08:07:23;;;;;;;51.97;10.30;;;21.40;1.00;;;;;;4941153;29;20941;-83
2023/09/10 08:10:21;;;;;;;64.07;10.83;;;21.50;1.00;;;;;;4950572;28;20529;-83
2023/09/10 08:16:13;;;;;;;54.67;9.20;;;21.80;1.00;;;;;;4952109;29;20422;-85
2023/09/10 08:18:45;;;;;;;51.07;8.97;;;22.00;1.00;;;;;;4953581;29;21097;-83
2023/09/10 08:21:11;;;;;;;51.17;8.90;;;22.10;1.00;;;;;;4950320;28;20811;-82
2023/09/10 08:23:50;;;;;;;48.37;8.87;;;22.20;1.00;;;;;;4954593;29;20803;-82
2023/09/10 08:26:26;;;;;;;52.83;9.80;;;22.40;1.00;;;;;;4952300;29;20451;-82
2023/09/10 08:28:56;;;;;;;52.80;9.70;;;22.40;1.00;;;;;;4946448;29;20953;-82
2023/09/10 08:31:26;;;;;;;56.20;9.40;;;22.50;1.00;;;;;;4948220;29;20468;-82
2023/09/10 08:33:52;;;;;;;55.77;9.67;;;22.60;1.00;;;;;;4952616;29;20918;-82
2023/09/10 08:36:44;;;;;;;49.90;8.70;;;22.70;1.00;;;;;;4949199;29;20525;-82
2023/09/10 08:39:32;;;;;;;50.63;8.90;;;22.80;1.00;;;;;;4956053;29;20232;-82
2023/09/10 08:42:11;;;;;;;48.53;9.10;;;23.00;1.00;;;;;;4963367;28;20440;-82
2023/09/10 08:44:52;;;;;;;49.87;8.70;;;23.10;1.00;;;;;;4954000;29;20444;-81
2023/09/10 08:47:39;;;;;;;51.23;8.83;;;23.20;1.00;;;;;;4944593;29;20444;-82
2023/09/10 08:50:13;;;;;;;51.50;8.77;;;23.40;1.00;;;;;;4948601;28;20441;-82
2023/09/10 08:52:44;;;;;;;49.70;8.10;;;23.60;1.00;;;;;;4958643;28;20524;-82
2023/09/10 08:55:21;;;;;;;47.57;8.30;;;23.70;1.00;;;;;;4956814;29;20446;-81
2023/09/10 08:58:11;;;;;;;48.53;7.80;;;23.80;1.00;;;;;;4946988;29;20418;-82
2023/09/10 09:01:14;;;;;;;50.63;8.60;;;23.90;1.00;;;;;;4948990;28;20427;-84
2023/09/10 09:04:00;;;;;;;45.57;7.37;;;24.00;1.00;;;;;;4962453;28;20485;-83
2023/09/10 09:06:43;;;;;;;49.70;8.83;;;24.00;1.00;;;;;;4955015;29;20441;-81
2023/09/10 09:09:22;;;;;;;48.17;8.90;;;24.20;1.00;;;;;;4940664;29;20505;-87
2023/09/10 09:12:26;;;;;;;50.43;8.50;;;24.30;1.00;;;;;;4951905;29;20588;-83
2023/09/10 09:14:53;;;;;;;47.10;8.27;;;24.40;1.00;;;;;;4939857;29;20516;-80
2023/09/10 09:17:28;;;;;;;47.70;8.07;;;24.50;1.00;;;;;;4956521;29;20551;-80
2023/09/10 09:19:59;;;;;;;47.30;7.63;;;24.60;1.00;;;;;;4949578;29;20429;-80
2023/09/10 09:22:29;;;;;;;48.90;8.03;;;24.70;1.00;;;;;;4955422;29;20933;-80
2023/09/10 09:24:55;;;;;;;46.40;7.80;;;24.80;1.00;;;;;;4956574;29;20923;-80
2023/09/10 09:27:44;;;;;;;46.47;7.97;;;25.00;1.00;;;;;;4937807;29;20416;-80
2023/09/10 09:30:14;;;;;;;48.50;8.50;;;25.10;1.00;;;;;;4945368;29;20495;-80
2023/09/10 09:32:56;;;;;;;46.60;7.87;;;25.20;1.00;;;;;;4950927;29;20865;-80
2023/09/10 09:35:56;;;;;;;45.60;7.90;;;25.30;1.00;;;;;;4949177;29;20444;-80
2023/09/10 09:38:32;;;;;;;46.87;8.20;;;25.30;1.00;;;;;;4951954;29;20484;-80
2023/09/10 09:41:16;;;;;;;48.90;8.23;;;25.40;1.00;;;;;;4945040;29;20449;-80
2023/09/10 09:43:44;;;;;;;49.90;8.30;;;25.60;1.00;;;;;;4949392;29;20949;-80
2023/09/10 09:46:47;;;;;;;46.53;8.27;;;25.70;1.00;;;;;;4954107;28;20971;-80
2023/09/10 09:49:22;;;;;;;45.67;7.73;;;25.80;1.00;;;;;;4935126;29;20446;-80
2023/09/10 09:52:04;;;;;;;45.90;7.93;;;25.90;1.00;;;;;;4937963;29;20553;-80
2023/09/10 09:54:34;;;;;;;46.10;8.20;;;26.00;1.00;;;;;;4934151;29;20437;-80
2023/09/10 09:57:16;;;;;;;51.93;8.03;;;26.00;1.00;;;;;;4934813;29;20915;-80
2023/09/10 09:59:44;;;;;;;51.00;8.40;;;26.20;1.00;;;;;;4929016;29;20446;-80
2023/09/10 10:02:15;;;;;;;47.07;8.10;;;26.40;1.00;;;;;;4936720;29;20851;-80
2023/09/10 10:04:42;;;;;;;56.03;7.97;;;26.50;1.00;;;;;;4931162;29;20449;-80
2023/09/10 10:07:14;;;;;;;44.57;7.90;;;26.50;1.00;;;;;;4934751;29;20429;-81
2023/09/10 10:09:50;;;;;;;48.07;8.50;;;26.50;1.00;;;;;;4934781;29;20515;-80
2023/09/10 10:12:33;;;;;;;55.40;8.33;;;26.70;1.00;;;;;;4934051;29;20480;-81
2023/09/10 10:15:32;;;;;;;47.47;7.97;;;26.80;1.00;;;;;;4923717;29;20497;-90
2023/09/10 10:18:09;;;;;;;44.33;8.20;;;26.90;1.00;;;;;;4929714;29;20546;-83
2023/09/10 10:21:14;;;;;;;46.40;8.20;;;27.00;1.00;;;;;;4912121;29;20467;-86
2023/09/10 10:24:02;;;;;;;49.87;7.97;;;27.00;1.00;;;;;;4935109;29;20434;-87
2023/09/10 10:26:46;;;;;;;46.17;8.10;;;27.20;1.00;;;;;;4944629;28;20895;-83
2023/09/10 10:29:44;;;;;;;46.40;7.87;;;27.30;1.00;;;;;;4948509;28;20453;-86
2023/09/10 10:32:45;;;;;;;46.60;8.10;;;27.50;1.00;;;;;;4955173;29;20461;-86
2023/09/10 10:35:58;;;;;;;44.23;7.50;;;27.60;1.00;;;;;;4950941;29;20481;-86
2023/09/10 10:38:44;;;;;;;45.10;7.43;;;27.70;1.00;;;;;;4950521;29;20450;-87
2023/09/10 10:41:44;;;;;;;46.90;8.10;;;27.90;1.00;;;;;;4953704;29;20442;-86
2023/09/10 10:44:44;;;;;;;47.67;8.30;;;28.00;1.00;;;;;;4953044;29;20540;-86
2023/09/10 10:47:18;;;;;;;46.20;7.57;;;28.10;1.00;;;;;;4960407;28;20467;-87
2023/09/10 10:50:19;;;;;;;43.47;7.40;;;28.20;1.00;;;;;;4954765;29;20469;-85
2023/09/10 10:53:18;;;;;;;45.27;7.30;;;28.40;1.00;;;;;;4946033;29;20565;-87
2023/09/10 10:55:55;;;;;;;45.57;7.27;;;28.60;1.00;;;;;;4935495;29;20422;-87
2023/09/10 10:59:14;;;;;;;55.77;7.97;;;28.60;1.00;;;;;;4948942;29;20432;-86
2023/09/10 11:02:08;;;;;;;42.93;6.90;;;28.70;1.00;;;;;;4954922;28;20425;-86
2023/09/10 11:05:10;;;;;;;45.80;7.07;;;28.70;1.00;;;;;;4918972;29;20492;-87
2023/09/10 11:07:45;;;;;;;48.40;7.60;;;28.80;1.00;;;;;;4926009;29;20515;-85
2023/09/10 11:10:39;;;;;;;46.10;6.90;;;28.90;1.00;;;;;;4953611;29;20425;-84
2023/09/10 11:13:10;;;;;;;44.97;7.07;;;29.00;1.00;;;;;;4950096;29;20479;-84
2023/09/10 11:16:14;;;;;;;44.80;7.23;;;29.10;1.00;;;;;;4936503;29;20433;-84
2023/09/10 11:18:45;;;;;;;45.10;7.20;;;29.20;1.00;;;;;;4951134;29;20425;-84
2023/09/10 11:21:58;;;;;;;43.37;7.47;;;29.30;1.00;;;;;;4937286;29;20855;-85
2023/09/10 11:24:58;;;;;;;44.63;7.30;;;29.30;1.00;;;;;;4881008;29;20445;-86
2023/09/10 11:27:44;;;;;;;58.13;7.73;;;29.30;1.00;;;;;;4896657;29;20425;-86
2023/09/10 11:30:19;;;;;;;42.07;6.60;;;29.50;1.00;;;;;;4880936;29;20447;-86
2023/09/10 11:33:22;;;;;;;49.87;7.30;;;29.60;1.00;;;;;;4893216;29;20449;-86
2023/09/10 11:35:53;;;;;;;43.60;6.70;;;29.70;1.00;;;;;;4880806;29;20448;-86
2023/09/10 11:38:38;;;;;;;44.70;6.93;;;29.80;1.00;;;;;;4898995;29;20461;-86
2023/09/10 11:41:15;;;;;;;50.70;6.77;;;29.90;1.00;;;;;;4891128;29;20461;-86
2023/09/10 11:44:14;;;;;;;40.27;6.40;;;29.90;1.00;;;;;;4912886;29;20432;-86
2023/09/10 11:46:45;;;;;;;49.73;7.17;;;30.00;1.00;;;;;;4921567;29;20909;-87
2023/09/10 11:49:15;;;;;;;48.40;6.30;;;30.10;1.00;;;;;;4902311;29;20456;-87
2023/09/10 11:51:53;;;;;;;49.40;7.47;;;30.20;1.00;;;;;;4923929;29;20509;-84
2023/09/10 11:54:32;;;;;;;51.80;7.07;;;30.20;1.00;;;;;;4896320;29;20524;-84
2023/09/10 11:57:03;;;;;;;49.10;6.80;;;30.30;1.00;;;;;;4911795;29;20455;-84
2023/09/10 11:59:50;;;;;;;40.90;5.60;;;30.30;1.00;;;;;;4915437;29;20484;-84
2023/09/10 12:03:03;;;;;;;50.10;6.53;;;30.40;1.00;;;;;;4956208;28;20453;-84
2023/09/10 12:05:40;;;;;;;59.17;6.00;;;30.50;1.00;;;;;;4958373;28;20450;-84
2023/09/10 12:08:15;;;;;;;52.37;5.70;;;30.60;1.00;;;;;;4958899;29;20422;-86
2023/09/10 12:10:45;;;;;;;51.37;5.73;;;30.70;1.00;;;;;;4958267;28;20433;-87
2023/09/10 12:13:44;;;;;;;47.50;5.70;;;30.70;1.00;;;;;;4958302;28;20446;-87
2023/09/10 12:16:15;;;;;;;46.17;6.83;;;30.80;1.00;;;;;;4946697;29;20423;-87
2023/09/10 12:18:46;;;;;;;46.53;6.80;;;30.90;1.00;;;;;;4955860;29;20433;-86
2023/09/10 12:21:16;;;;;;;41.33;6.20;;;31.00;1.00;;;;;;4954002;29;20498;-86
2023/09/10 12:23:46;;;;;;;52.83;6.53;;;31.00;1.00;;;;;;4955923;29;20415;-85
2023/09/10 12:26:12;;;;;;;54.23;5.57;;;31.00;1.00;;;;;;4956658;29;20464;-84
2023/09/10 12:28:45;;;;;;;47.43;6.10;;;31.10;1.00;;;;;;4956858;29;20489;-85
2023/09/10 12:31:14;;;;;;;44.20;6.00;;;31.20;1.00;;;;;;4939270;28;20459;-85
2023/09/10 12:33:45;;;;;;;47.00;5.70;;;31.20;1.00;;;;;;4951576;29;20459;-85
2023/09/10 12:36:14;;;;;;;51.80;5.90;;;31.30;1.00;;;;;;4966247;28;20570;-84
2023/09/10 12:38:41;;;;;;;49.73;6.10;;;31.30;1.00;;;;;;4952014;29;20436;-84
2023/09/10 12:41:09;;;;;;;52.00;5.83;;;31.40;1.00;;;;;;4952352;29;20454;-84
2023/09/10 12:43:35;;;;;;;47.13;5.80;;;31.50;1.00;;;;;;4955073;29;20854;-84
2023/09/10 12:46:15;;;;;;;50.57;6.47;;;31.60;1.00;;;;;;4953858;28;20449;-84
2023/09/10 12:48:40;;;;;;;60.13;7.07;;;31.60;1.00;;;;;;4953506;28;20183;-84
2023/09/10 12:51:08;;;;;;;52.67;6.33;;;31.60;1.00;;;;;;4951491;28;20475;-85
2023/09/10 12:53:44;;;;;;;52.33;5.80;;;31.60;1.00;;;;;;4947323;29;20270;-86
2023/09/10 12:56:15;;;;;;;43.50;5.30;;;31.80;1.00;;;;;;4951630;29;20442;-87
2023/09/10 12:58:41;;;;;;;53.77;6.30;;;31.80;1.00;;;;;;4947002;29;20435;-86
2023/09/10 13:01:15;;;;;;;46.90;5.60;;;31.90;1.00;;;;;;4965370;28;20435;-87
2023/09/10 13:04:08;;;;;;;46.97;5.80;;;31.80;1.00;;;;;;4941022;28;20466;-87
2023/09/10 13:07:26;;;;;;;50.57;5.70;;;31.80;1.00;;;;;;4969091;28;20447;-89
2023/09/10 13:09:57;;;;;;;48.80;5.90;;;31.80;1.00;;;;;;4966367;28;20444;-85
2023/09/10 13:12:56;;;;;;;55.07;6.00;;;31.80;1.00;;;;;;4951234;29;20477;-86
2023/09/10 13:15:39;;;;;;;50.73;5.20;;;31.80;1.00;;;;;;4946242;29;20442;-87
2023/09/10 13:18:08;;;;;;;46.13;5.40;;;31.80;1.00;;;;;;4954917;29;20501;-88
2023/09/10 13:20:45;;;;;;;53.70;6.60;;;31.90;1.00;;;;;;4965509;28;21017;-86
2023/09/10 13:26:32;;;;;;;51.30;5.90;;;32.10;1.00;;;;;;4943651;29;20977;-87
2023/09/10 13:29:15;;;;;;;45.90;5.90;;;32.10;1.00;;;;;;4954717;29;20431;-87
2023/09/10 13:32:08;;;;;;;49.40;5.23;;;32.10;1.00;;;;;;4965915;28;20595;-89
2023/09/10 13:34:39;;;;;;;49.37;5.30;;;32.00;1.00;;;;;;4947447;29;20475;-88
2023/09/10 13:37:38;;;;;;;46.37;5.50;;;32.00;1.00;;;;;;4954438;29;20438;-89
2023/09/10 13:43:26;;;;;;;59.30;5.50;;;;;;;;;;4951505;28;20413;-90
2023/09/10 13:46:14;;;;;;;44.77;5.30;;;31.90;1.00;;;;;;4945934;28;20435;-90
2023/09/10 13:52:56;;;;;;;61.40;6.20;;;32.20;1.00;;;;;;4960159;28;20481;-90
2023/09/10 13:56:08;;;;;;;55.57;6.30;;;32.30;1.00;;;;;;4951948;28;20525;-88
2023/09/10 13:59:14;;;;;;;43.57;5.43;;;32.30;1.00;;;;;;4944543;29;20439;-88
2023/09/10 14:01:45;;;;;;;62.23;5.50;;;32.50;1.00;;;;;;4956564;28;20438;-87
2023/09/10 14:04:11;;;;;;;50.80;5.50;;;32.50;1.00;;;;;;4954328;28;20479;-86
2023/09/10 14:06:51;;;;;;;56.83;4.80;;;32.50;1.00;;;;;;4949703;29;20866;-87
2023/09/10 14:09:21;;;;;;;59.93;5.80;;;;;;;;;;4954334;29;20202;-89
2023/09/10 14:11:47;;;;;;;50.30;5.57;;;;;;;;;;4954796;28;20475;-90
2023/09/10 14:14:27;;;;;;;62.00;5.17;;;;;;;;;;4951977;29;21012;-90
2023/09/10 14:16:53;;;;;;;51.73;4.63;;;;;;;;;;4954058;29;20445;-89
2023/09/10 14:19:56;;;;;;;62.53;5.40;;;32.70;1.00;;;;;;4955648;29;20934;-90
2023/09/10 14:25:28;;;;;;;60.73;5.40;;;32.60;1.00;;;;;;4951458;29;20476;-87
2023/09/10 14:28:12;;;;;;;46.83;5.60;;;32.60;1.00;;;;;;4951984;29;20446;-88
2023/09/10 14:30:56;;;;;;;49.53;5.10;;;32.60;1.00;;;;;;4956172;29;20434;-87
2023/09/10 14:33:39;;;;;;;45.30;4.70;;;32.60;1.00;;;;;;4953597;29;20442;-87
2023/09/10 14:36:21;;;;;;;46.27;4.83;;;32.60;1.00;;;;;;4952409;29;20513;-88
2023/09/10 14:38:51;;;;;;;54.57;4.93;;;32.70;1.00;;;;;;4955081;29;20458;-87
2023/09/10 14:41:50;;;;;;;65.83;5.87;;;32.70;1.00;;;;;;4942891;29;20438;-91
2023/09/10 14:44:39;;;;;;;52.00;4.60;;;32.70;1.00;;;;;;4954153;28;20443;-88
2023/09/10 14:47:05;;;;;;;51.17;4.77;;;32.70;1.00;;;;;;4971173;28;20520;-88
2023/09/10 14:52:53;;;;;;;53.50;5.20;;;;;;;;;;4953846;28;20476;-87
2023/09/10 14:59:26;;;;;;;43.87;4.60;;;32.90;1.00;;;;;;4951608;29;20517;-87
2023/09/10 15:01:56;;;;;;;45.07;4.83;;;33.10;1.00;;;;;;4952814;28;20493;-89
2023/09/10 15:04:50;;;;;;;47.10;5.13;;;33.80;1.00;;;;;;4954780;29;20984;-90
2023/09/10 15:07:26;;;;;;;57.73;5.17;;;34.60;1.00;;;;;;4956948;28;20435;-88
2023/09/10 15:10:32;;;;;;;58.87;4.83;;;35.60;1.00;;;;;;4951167;29;20820;-90
2023/09/10 15:13:03;;;;;;;47.93;4.60;;;36.80;1.00;;;;;;4963291;28;20533;-92
2023/09/10 15:16:14;;;;;;;62.93;6.33;;;37.50;1.00;;;;;;4939562;29;20938;-91
2023/09/10 15:18:40;;;;;;;43.03;4.40;;;;;;;;;;4973383;28;20453;-91
2023/09/10 15:21:09;;;;;;;55.73;5.60;;;39.10;1.00;;;;;;4956729;28;20444;-90
2023/09/10 15:27:32;;;;;;;38.77;3.70;;;40.60;1.00;;;;;;4953778;29;20430;-86
2023/09/10 15:30:32;;;;;;;40.33;4.43;;;41.50;1.00;;;;;;4955995;29;20460;-87
2023/09/10 15:32:59;;;;;;;48.40;4.77;;;41.60;1.00;;;;;;4955059;28;20988;-86
2023/09/10 15:35:25;;;;;;;39.73;4.50;;;41.70;1.00;;;;;;4949447;29;20998;-89
2023/09/10 15:38:24;;;;;;;47.03;4.73;;;42.30;1.00;;;;;;4957207;28;20489;-88
2023/09/10 15:40:54;;;;;;;44.63;5.00;;;42.80;1.00;;;;;;4950448;28;20184;-92
2023/09/10 15:43:21;;;;;;;45.07;5.30;;;43.30;1.00;;;;;;4949512;29;20985;-92
2023/09/10 15:45:47;;;;;;;44.90;4.70;;;43.80;1.00;;;;;;4957424;28;20446;-93
2023/09/10 15:48:15;;;;;;;35.20;4.20;;;43.80;1.00;;;;;;4971966;28;20450;-87
2023/09/10 15:54:15;;;;;;;47.17;4.97;;;44.50;1.00;;;;;;4955462;28;20441;-89
2023/09/10 15:56:51;;;;;;;38.77;4.43;;;44.50;1.00;;;;;;4957491;29;20501;-86
2023/09/10 15:59:38;;;;;;;41.57;4.50;;;43.70;1.00;;;;;;4964880;28;20522;-88
2023/09/10 16:02:26;;;;;;;49.53;4.67;;;43.10;1.00;;;;;;4952236;28;20441;-87
2023/09/10 16:05:06;;;;;;;43.83;4.77;;;42.10;1.00;;;;;;4950541;28;20438;-84